Time;durP1;ratioP1;P1;durP2;ratioP2;P2;SDS_P1;SDS_P2;PMS_P1;PMS_P2;Temp;Humidity;BMP_temperature;BMP_pressure;BME280_temperature;BME280_humidity;BME280_pressure;Samples;Min_cycle;Max_cycle;Signal;HPM_P1;HPM_P2
2021/11/17 02:27:35;;;;;;;79.65;29.73;;;5.90;99.90;;;;;;5074541;28;20654;-69
2021/11/17 02:30:15;;;;;;;71.82;28.33;;;5.90;99.90;;;;;;5087421;28;20036;-69
2021/11/17 02:32:56;;;;;;;73.63;29.88;;;5.90;99.90;;;;;;5058242;28;20040;-69
2021/11/17 02:35:40;;;;;;;74.03;30.48;;;6.00;99.90;;;;;;5055728;28;20534;-69
2021/11/17 02:38:30;;;;;;;73.03;29.65;;;5.90;99.90;;;;;;5057513;28;20445;-69
2021/11/17 02:41:35;;;;;;;71.35;29.17;;;6.00;99.90;;;;;;5058017;28;20123;-69
2021/11/17 02:44:37;;;;;;;73.28;30.58;;;6.00;99.90;;;;;;5057618;28;20044;-69
2021/11/17 02:47:24;;;;;;;69.85;29.17;;;6.00;99.90;;;;;;5057084;28;20502;-69
2021/11/17 02:50:17;;;;;;;72.53;29.92;;;6.00;99.90;;;;;;5089157;28;20124;-69
2021/11/17 02:53:07;;;;;;;73.10;29.48;;;6.00;99.90;;;;;;5072671;28;20128;-69
2021/11/17 02:55:48;;;;;;;76.05;31.25;;;6.10;99.90;;;;;;5059244;28;20145;-69
2021/11/17 02:58:30;;;;;;;75.15;30.70;;;6.00;99.90;;;;;;5058927;28;20064;-69
2021/11/17 03:01:18;;;;;;;75.95;30.90;;;6.10;99.90;;;;;;5061664;28;20170;-69
2021/11/17 03:03:53;;;;;;;72.97;31.88;;;6.10;99.90;;;;;;5058653;28;20051;-69
2021/11/17 03:06:57;;;;;;;73.25;31.48;;;6.10;99.90;;;;;;5060664;28;20119;-69
2021/11/17 03:09:45;;;;;;;79.13;31.02;;;6.10;99.90;;;;;;5054334;28;20044;-69
2021/11/17 03:12:39;;;;;;;73.15;30.85;;;6.10;99.90;;;;;;5057541;28;20167;-69
2021/11/17 03:15:23;;;;;;;82.70;31.52;;;6.10;99.90;;;;;;5061247;28;20060;-69
2021/11/17 03:18:11;;;;;;;79.78;30.30;;;6.10;99.90;;;;;;5088404;28;20048;-69
2021/11/17 03:20:59;;;;;;;79.45;32.25;;;6.10;99.90;;;;;;5089854;28;20071;-69
2021/11/17 03:23:53;;;;;;;80.47;31.90;;;6.20;99.90;;;;;;5058928;28;20172;-69
2021/11/17 03:26:46;;;;;;;77.82;32.20;;;6.10;99.90;;;;;;5059052;28;20055;-69
2021/11/17 03:29:39;;;;;;;72.82;30.70;;;6.20;99.90;;;;;;5054239;28;20044;-69
2021/11/17 03:32:14;;;;;;;79.53;30.70;;;6.10;99.90;;;;;;5061545;28;20045;-69
2021/11/17 03:34:48;;;;;;;72.53;29.50;;;6.20;99.90;;;;;;5057506;28;20041;-69
2021/11/17 03:37:41;;;;;;;73.93;32.45;;;6.20;99.90;;;;;;5058443;28;20049;-68
2021/11/17 03:40:30;;;;;;;73.32;32.13;;;6.20;99.90;;;;;;5058780;28;20049;-69
2021/11/17 03:43:35;;;;;;;84.20;32.67;;;6.10;99.90;;;;;;5061815;28;20051;-69
2021/11/17 03:46:09;;;;;;;81.60;31.58;;;6.20;99.90;;;;;;5079413;28;20054;-69
2021/11/17 03:49:06;;;;;;;84.28;32.83;;;6.20;99.90;;;;;;5059164;28;20052;-69
2021/11/17 03:51:44;;;;;;;72.20;32.35;;;6.20;99.90;;;;;;5094401;28;20056;-69
2021/11/17 03:54:23;;;;;;;87.68;34.10;;;6.20;99.90;;;;;;5061298;28;20043;-69
2021/11/17 03:57:34;;;;;;;78.20;32.83;;;6.20;99.90;;;;;;5063036;28;20036;-69
2021/11/17 04:00:19;;;;;;;78.43;31.63;;;6.30;99.90;;;;;;5050289;28;20041;-69
2021/11/17 04:03:07;;;;;;;87.63;35.27;;;6.30;99.90;;;;;;5078609;28;20119;-69
2021/11/17 04:05:45;;;;;;;84.45;34.05;;;6.30;99.90;;;;;;5066077;28;20378;-69
2021/11/17 04:08:24;;;;;;;84.03;33.60;;;6.30;99.90;;;;;;5061951;28;20040;-68
2021/11/17 04:10:56;;;;;;;87.90;34.33;;;6.30;99.90;;;;;;5063784;28;20082;-69
2021/11/17 04:13:40;;;;;;;90.18;34.30;;;6.30;99.90;;;;;;5063890;28;20442;-68
2021/11/17 04:16:05;;;;;;;88.10;36.28;;;6.30;99.90;;;;;;5064377;28;20045;-68
2021/11/17 04:19:09;;;;;;;97.32;36.95;;;6.30;99.90;;;;;;5059111;28;20597;-68
2021/11/17 04:22:10;;;;;;;92.10;36.88;;;6.30;99.90;;;;;;5064954;28;20113;-68
2021/11/17 04:24:53;;;;;;;97.07;38.05;;;6.30;99.90;;;;;;5046687;28;20139;-69
2021/11/17 04:27:27;;;;;;;98.15;37.67;;;6.40;99.90;;;;;;5061781;28;20563;-69
2021/11/17 04:29:52;;;;;;;101.40;38.75;;;6.40;99.90;;;;;;5095160;28;20040;-69
2021/11/17 04:32:34;;;;;;;101.05;38.85;;;6.40;99.90;;;;;;5049570;28;20033;-69
2021/11/17 04:35:52;;;;;;;99.65;39.13;;;6.40;99.90;;;;;;5064103;28;20047;-69
2021/11/17 04:38:17;;;;;;;;;;;6.40;99.90;;;;;;5046687;28;20230;-69
2021/11/17 04:40:52;;;;;;;101.33;39.33;;;6.40;99.90;;;;;;5066814;28;20438;-69
2021/11/17 04:43:32;;;;;;;95.70;36.22;;;6.40;99.90;;;;;;5064603;28;20044;-68
2021/11/17 04:46:20;;;;;;;91.38;36.63;;;6.40;99.90;;;;;;5077703;28;20047;-69
2021/11/17 04:49:03;;;;;;;98.82;39.80;;;6.40;99.90;;;;;;5061376;28;20548;-68
2021/11/17 04:51:50;;;;;;;96.78;39.83;;;6.40;99.90;;;;;;5063619;28;20033;-69
2021/11/17 04:54:50;;;;;;;97.45;38.35;;;6.50;99.90;;;;;;5097654;28;20079;-69
2021/11/17 04:57:19;;;;;;;97.20;40.10;;;6.50;99.90;;;;;;5064799;28;20086;-68
2021/11/17 04:59:53;;;;;;;102.18;40.38;;;6.50;99.90;;;;;;5062126;28;20044;-69
2021/11/17 05:02:40;;;;;;;101.88;42.13;;;6.50;99.90;;;;;;5096499;28;20086;-69
2021/11/17 05:05:35;;;;;;;104.22;41.85;;;6.50;99.90;;;;;;5063656;28;20117;-69
2021/11/17 05:08:07;;;;;;;95.65;40.03;;;6.60;99.90;;;;;;5061014;28;20810;-69
2021/11/17 05:10:33;;;;;;;104.10;41.72;;;6.50;99.90;;;;;;5062168;28;20533;-69
2021/11/17 05:13:14;;;;;;;103.43;42.15;;;6.50;99.90;;;;;;5064106;28;20040;-69
2021/11/17 05:16:08;;;;;;;98.45;40.67;;;6.50;99.90;;;;;;5095228;28;20044;-69
2021/11/17 05:18:43;;;;;;;91.93;40.50;;;6.60;99.90;;;;;;5059203;28;20766;-69
2021/11/17 05:21:31;;;;;;;108.88;43.90;;;6.60;99.90;;;;;;5064352;28;20098;-69
2021/11/17 05:24:22;;;;;;;103.90;43.08;;;6.70;99.90;;;;;;5063164;28;20048;-69
2021/11/17 05:27:18;;;;;;;93.70;41.22;;;6.60;99.90;;;;;;5062146;28;20052;-69
2021/11/17 05:30:15;;;;;;;98.18;41.47;;;6.60;99.90;;;;;;5061175;28;20036;-69
2021/11/17 05:32:50;;;;;;;105.10;43.55;;;6.60;99.90;;;;;;5064419;28;20720;-69
2021/11/17 05:35:31;;;;;;;113.32;44.65;;;6.70;99.90;;;;;;5062596;28;20495;-69
2021/11/17 05:38:24;;;;;;;103.78;44.42;;;6.60;99.90;;;;;;5061248;28;20053;-69
2021/11/17 05:40:58;;;;;;;105.53;44.33;;;6.70;99.90;;;;;;5062715;28;20045;-69
2021/11/17 05:43:45;;;;;;;110.40;44.55;;;6.70;99.90;;;;;;5095102;28;20079;-69
2021/11/17 05:46:38;;;;;;;114.07;46.97;;;6.80;99.90;;;;;;5057756;28;20120;-69
2021/11/17 05:49:41;;;;;;;104.53;45.33;;;6.80;99.90;;;;;;5058281;28;20076;-69
2021/11/17 05:52:09;;;;;;;104.47;44.35;;;6.80;99.90;;;;;;5063134;28;20384;-69
2021/11/17 05:54:47;;;;;;;113.63;45.53;;;6.90;99.90;;;;;;5061896;28;20047;-69
2021/11/17 05:57:45;;;;;;;117.90;47.13;;;6.80;99.90;;;;;;5061118;28;20051;-69
2021/11/17 06:00:16;;;;;;;103.35;45.92;;;6.80;99.90;;;;;;5061443;28;20053;-69
2021/11/17 06:02:51;;;;;;;110.75;46.20;;;6.80;99.90;;;;;;5063097;28;20044;-69
2021/11/17 06:05:17;;;;;;;106.38;46.45;;;6.80;99.90;;;;;;5062615;28;20464;-69
2021/11/17 06:07:42;;;;;;;117.82;48.22;;;6.90;99.90;;;;;;5060791;28;20128;-69
2021/11/17 06:10:23;;;;;;;103.28;45.58;;;6.90;99.90;;;;;;5061593;28;20048;-69
2021/11/17 06:12:49;;;;;;;109.70;46.20;;;6.90;99.90;;;;;;5064141;28;20514;-69
2021/11/17 06:15:17;;;;;;;105.28;45.25;;;6.90;99.90;;;;;;5061546;28;20032;-69
2021/11/17 06:17:48;;;;;;;114.97;45.95;;;6.90;99.90;;;;;;5057749;28;20041;-69
2021/11/17 06:20:17;;;;;;;113.07;47.50;;;6.90;99.90;;;;;;5053826;28;20055;-69
2021/11/17 06:22:46;;;;;;;111.75;46.90;;;6.90;99.90;;;;;;5059211;28;20064;-69
2021/11/17 06:25:13;;;;;;;106.03;46.33;;;6.90;99.90;;;;;;5058302;28;21263;-69
2021/11/17 06:27:43;;;;;;;115.53;48.55;;;7.00;99.90;;;;;;5060615;28;20036;-69
2021/11/17 06:30:15;;;;;;;110.32;47.38;;;7.00;99.90;;;;;;5058649;28;20067;-69
2021/11/17 06:32:41;;;;;;;115.05;49.10;;;7.00;99.90;;;;;;5061376;28;20037;-68
2021/11/17 06:35:08;;;;;;;110.05;46.83;;;7.00;99.90;;;;;;5057306;28;20135;-69
2021/11/17 06:37:34;;;;;;;107.70;48.60;;;7.00;99.90;;;;;;5059728;28;20044;-69
2021/11/17 06:40:03;;;;;;;103.78;48.35;;;7.00;99.90;;;;;;5056711;28;20041;-69
2021/11/17 06:42:36;;;;;;;114.70;49.47;;;7.10;99.90;;;;;;5058165;28;20044;-69
2021/11/17 06:45:09;;;;;;;112.82;46.40;;;7.00;99.90;;;;;;5058545;28;20049;-69
2021/11/17 06:47:34;;;;;;;102.00;45.13;;;7.10;99.90;;;;;;5058886;28;20051;-69
2021/11/17 06:50:00;;;;;;;101.65;44.22;;;7.10;99.90;;;;;;5057174;28;20410;-69
2021/11/17 06:52:26;;;;;;;97.57;45.13;;;7.10;99.90;;;;;;5056212;28;20055;-69
2021/11/17 06:54:52;;;;;;;101.32;44.95;;;7.10;99.90;;;;;;5058663;28;20089;-69
2021/11/17 06:57:18;;;;;;;99.55;45.30;;;7.10;99.90;;;;;;5057106;28;20059;-69
2021/11/17 06:59:45;;;;;;;96.18;43.00;;;7.10;99.90;;;;;;5057032;28;20060;-69
2021/11/17 07:02:11;;;;;;;112.07;47.08;;;7.10;99.90;;;;;;5060137;28;20064;-69
2021/11/17 07:04:37;;;;;;;105.43;44.88;;;7.20;99.90;;;;;;5055535;28;20451;-69
2021/11/17 07:07:06;;;;;;;102.28;46.90;;;7.20;99.90;;;;;;5056196;28;20094;-69
2021/11/17 07:09:32;;;;;;;99.78;45.80;;;7.20;99.90;;;;;;5054265;28;20041;-69
2021/11/17 07:11:58;;;;;;;92.95;43.90;;;7.20;99.90;;;;;;5057386;28;20048;-69
2021/11/17 07:14:24;;;;;;;97.75;45.47;;;7.20;99.90;;;;;;5058856;28;20781;-69
2021/11/17 07:16:52;;;;;;;92.18;42.83;;;7.20;99.90;;;;;;5039599;28;20047;-69
2021/11/17 07:19:27;;;;;;;103.28;44.30;;;7.30;99.90;;;;;;5055311;28;20041;-69
2021/11/17 07:21:55;;;;;;;101.40;46.28;;;7.20;99.90;;;;;;5086114;28;20084;-69
2021/11/17 07:24:23;;;;;;;98.72;41.55;;;7.30;99.90;;;;;;5058098;28;20036;-69
2021/11/17 07:26:48;;;;;;;92.40;42.97;;;7.30;99.90;;;;;;5054967;28;20050;-69
2021/11/17 07:29:15;;;;;;;93.97;44.15;;;7.30;99.90;;;;;;5051270;28;20052;-69
2021/11/17 07:31:41;;;;;;;102.38;44.20;;;7.30;99.90;;;;;;5059326;28;20040;-69
2021/11/17 07:34:07;;;;;;;97.63;43.95;;;7.30;99.90;;;;;;5091286;28;20164;-69
2021/11/17 07:36:33;;;;;;;102.43;44.63;;;7.30;99.90;;;;;;5063328;28;20175;-68
2021/11/17 07:38:58;;;;;;;104.80;45.58;;;7.30;99.90;;;;;;5060331;28;20045;-69
2021/11/17 07:41:24;;;;;;;97.45;43.53;;;7.30;99.90;;;;;;5059909;28;20727;-69
2021/11/17 07:43:50;;;;;;;106.30;43.28;;;7.30;99.90;;;;;;5060305;28;20041;-69
2021/11/17 07:46:16;;;;;;;104.55;42.78;;;7.30;99.90;;;;;;5061453;28;21963;-69
2021/11/17 07:48:41;;;;;;;102.47;44.45;;;7.30;99.90;;;;;;5058096;28;20041;-69
2021/11/17 07:51:07;;;;;;;106.28;45.53;;;7.40;99.90;;;;;;5062749;28;20033;-69
2021/11/17 07:53:34;;;;;;;102.50;43.08;;;7.40;99.90;;;;;;5061703;28;20052;-69
2021/11/17 07:56:01;;;;;;;104.93;43.67;;;7.40;99.90;;;;;;5060145;28;20064;-69
2021/11/17 07:58:32;;;;;;;104.43;42.38;;;7.40;99.90;;;;;;5057690;28;20129;-69
2021/11/17 08:00:59;;;;;;;105.43;43.45;;;7.40;99.90;;;;;;5062338;28;20037;-69
2021/11/17 08:03:30;;;;;;;94.72;42.22;;;7.50;99.90;;;;;;5059311;28;20084;-69
2021/11/17 08:05:56;;;;;;;101.22;44.75;;;7.40;99.90;;;;;;5060679;28;20537;-69
2021/11/17 08:08:24;;;;;;;102.00;42.03;;;7.50;99.90;;;;;;5088760;28;20040;-69
2021/11/17 08:10:51;;;;;;;98.88;42.72;;;7.40;99.90;;;;;;5057168;28;20044;-69
2021/11/17 08:13:17;;;;;;;102.40;42.50;;;7.50;99.90;;;;;;5061016;28;20443;-69
2021/11/17 08:15:43;;;;;;;93.07;40.35;;;7.50;99.90;;;;;;5060177;28;20040;-69
2021/11/17 08:18:09;;;;;;;93.28;40.97;;;7.50;99.90;;;;;;5043514;28;20040;-69
2021/11/17 08:20:35;;;;;;;96.60;41.42;;;7.50;99.90;;;;;;5073407;28;20032;-69
2021/11/17 08:23:02;;;;;;;96.72;41.15;;;7.60;99.90;;;;;;5058525;28;20105;-69
2021/11/17 08:25:32;;;;;;;102.82;44.38;;;7.60;99.90;;;;;;5057205;28;20032;-69
2021/11/17 08:27:58;;;;;;;103.32;44.03;;;7.60;99.90;;;;;;5057063;28;20051;-69
2021/11/17 08:30:27;;;;;;;99.82;42.83;;;7.60;99.90;;;;;;5060016;28;20059;-69
2021/11/17 08:32:53;;;;;;;103.78;42.22;;;7.60;99.90;;;;;;5058152;28;20508;-69
2021/11/17 08:35:22;;;;;;;97.20;41.03;;;7.60;99.90;;;;;;5059963;28;20048;-69
2021/11/17 08:37:50;;;;;;;90.75;42.63;;;7.70;99.90;;;;;;5059196;28;20044;-69
2021/11/17 08:40:18;;;;;;;101.40;42.15;;;7.80;99.90;;;;;;5057180;28;20037;-69
2021/11/17 08:42:44;;;;;;;103.30;41.92;;;7.80;99.90;;;;;;5058950;28;20474;-69
2021/11/17 08:45:11;;;;;;;99.30;40.30;;;7.80;99.90;;;;;;5058976;28;20041;-69
2021/11/17 08:47:37;;;;;;;97.35;42.25;;;7.90;99.90;;;;;;5073519;28;20052;-69
2021/11/17 08:50:06;;;;;;;92.10;40.00;;;7.90;99.90;;;;;;5056435;28;20029;-69
2021/11/17 08:52:32;;;;;;;90.72;41.10;;;7.90;99.90;;;;;;5059337;28;20041;-69
2021/11/17 08:54:58;;;;;;;96.95;42.35;;;8.00;99.90;;;;;;5059793;28;20118;-69
2021/11/17 08:57:23;;;;;;;96.30;41.20;;;7.90;99.90;;;;;;5058677;28;20072;-69
2021/11/17 08:59:54;;;;;;;98.65;42.10;;;8.00;99.90;;;;;;5042761;28;20548;-69
2021/11/17 09:02:20;;;;;;;97.90;41.92;;;8.10;99.90;;;;;;5061126;28;20086;-69
2021/11/17 09:04:47;;;;;;;96.85;42.17;;;8.20;99.90;;;;;;5054781;28;20053;-69
2021/11/17 09:07:13;;;;;;;100.00;42.25;;;8.20;99.90;;;;;;5058624;28;20052;-69
2021/11/17 09:09:40;;;;;;;98.43;42.28;;;8.20;99.90;;;;;;5058153;28;20032;-69
2021/11/17 09:12:07;;;;;;;96.97;40.83;;;8.30;99.90;;;;;;5058631;28;20047;-69
2021/11/17 09:14:33;;;;;;;98.78;40.85;;;8.30;99.90;;;;;;5060066;28;20037;-69
2021/11/17 09:16:59;;;;;;;109.70;43.05;;;8.30;99.90;;;;;;5058691;28;20040;-69
2021/11/17 09:19:25;;;;;;;95.15;40.90;;;8.30;99.90;;;;;;5057259;28;20201;-69
2021/11/17 09:21:51;;;;;;;91.10;38.83;;;8.40;99.90;;;;;;5090726;28;20674;-68
2021/11/17 09:24:19;;;;;;;98.43;40.58;;;8.40;99.90;;;;;;5059048;28;20505;-70
2021/11/17 09:26:48;;;;;;;101.22;40.17;;;8.40;99.90;;;;;;5043118;28;20051;-68
2021/11/17 09:29:14;;;;;;;77.95;36.28;;;8.40;99.90;;;;;;5055682;28;20052;-69
2021/11/17 09:31:42;;;;;;;81.75;35.38;;;8.40;99.90;;;;;;5060012;28;20042;-69
2021/11/17 09:34:09;;;;;;;87.72;36.20;;;8.40;99.90;;;;;;5058180;28;20041;-69
2021/11/17 09:36:37;;;;;;;77.43;33.97;;;8.40;99.90;;;;;;5054799;28;20090;-69
2021/11/17 09:39:05;;;;;;;88.25;36.55;;;8.50;99.90;;;;;;5053341;28;20769;-68
2021/11/17 09:41:35;;;;;;;87.40;34.75;;;8.40;99.90;;;;;;5056833;28;20036;-68
2021/11/17 09:44:06;;;;;;;81.05;35.50;;;8.50;99.90;;;;;;5090841;28;20068;-69
2021/11/17 09:46:36;;;;;;;87.35;35.55;;;8.40;99.90;;;;;;5058068;28;20024;-69
2021/11/17 09:49:06;;;;;;;77.75;32.22;;;8.50;99.90;;;;;;5057488;28;20049;-69
2021/11/17 09:51:39;;;;;;;74.72;33.13;;;8.60;99.90;;;;;;5057824;28;20024;-69
2021/11/17 09:54:29;;;;;;;86.57;36.83;;;8.60;99.90;;;;;;5070437;28;20396;-69
2021/11/17 09:57:03;;;;;;;79.60;35.03;;;8.60;99.90;;;;;;5058251;28;20057;-69
2021/11/17 09:59:43;;;;;;;82.30;35.38;;;8.70;99.90;;;;;;5054508;28;20051;-69
2021/11/17 10:02:30;;;;;;;87.28;36.45;;;8.70;99.90;;;;;;5076089;28;20045;-69
2021/11/17 10:05:16;;;;;;;81.43;35.90;;;8.70;99.90;;;;;;5056799;28;20518;-69
2021/11/17 10:08:33;;;;;;;85.60;36.90;;;8.70;99.90;;;;;;5056856;28;20040;-69
2021/11/17 10:13:50;;;;;;;79.28;35.83;;;8.80;99.90;;;;;;5057596;28;20048;-69
2021/11/17 10:16:16;;;;;;;81.43;34.78;;;8.80;99.90;;;;;;5057643;28;21195;-69
2021/11/17 10:18:49;;;;;;;86.03;37.38;;;8.90;99.90;;;;;;5055195;28;20106;-69
2021/11/17 10:21:31;;;;;;;79.78;34.15;;;8.90;99.90;;;;;;5091708;28;20086;-69
2021/11/17 10:24:17;;;;;;;87.93;35.80;;;9.00;99.90;;;;;;5056998;28;20128;-69
2021/11/17 10:26:52;;;;;;;83.30;33.17;;;9.00;99.90;;;;;;5058332;28;20044;-69
2021/11/17 10:29:38;;;;;;;75.60;33.15;;;9.00;99.90;;;;;;5055917;28;20046;-69
2021/11/17 10:32:33;;;;;;;70.25;31.75;;;9.20;99.90;;;;;;5058945;28;20367;-69
2021/11/17 10:35:04;;;;;;;74.63;32.20;;;9.20;99.90;;;;;;5055056;28;20052;-69
2021/11/17 10:37:37;;;;;;;72.88;33.55;;;9.30;99.90;;;;;;5056742;28;20116;-69
2021/11/17 10:40:19;;;;;;;75.63;33.58;;;9.30;99.90;;;;;;5056084;28;20106;-69
2021/11/17 10:42:46;;;;;;;67.90;30.48;;;9.40;99.90;;;;;;5057373;28;20164;-69
2021/11/17 10:45:13;;;;;;;68.82;31.48;;;9.50;99.90;;;;;;5058766;28;20044;-69
2021/11/17 10:47:47;;;;;;;59.58;27.77;;;9.50;99.90;;;;;;5054827;28;20880;-69
2021/11/17 10:50:30;;;;;;;61.72;27.83;;;9.50;99.90;;;;;;5055627;28;20570;-69
2021/11/17 10:53:05;;;;;;;57.65;27.60;;;9.70;99.90;;;;;;5056927;28;20068;-69
2021/11/17 10:55:36;;;;;;;49.53;26.33;;;9.80;99.90;;;;;;5054969;28;20085;-69
2021/11/17 10:58:08;;;;;;;50.08;24.88;;;10.00;99.90;;;;;;5055054;28;20037;-69
2021/11/17 11:00:43;;;;;;;42.00;22.77;;;10.20;99.90;;;;;;5057387;28;20033;-69
2021/11/17 11:03:10;;;;;;;;;;;10.40;99.90;;;;;;5057595;28;20044;-69
2021/11/17 11:05:47;;;;;;;;;;;10.70;99.90;;;;;;5060128;28;19924;-69
2021/11/17 11:08:31;;;;;;;38.10;19.10;;;10.90;99.90;;;;;;5060669;28;19928;-69
2021/11/17 11:11:00;;;;;;;35.25;18.23;;;11.10;99.90;;;;;;5060228;28;20033;-69
2021/11/17 11:13:32;;;;;;;27.70;16.55;;;11.30;99.90;;;;;;5093553;28;20049;-70
2021/11/17 11:16:21;;;;;;;27.98;16.13;;;11.40;99.90;;;;;;5061979;28;20410;-70
2021/11/17 11:19:08;;;;;;;29.58;15.57;;;11.70;99.90;;;;;;5039481;28;20040;-70
2021/11/17 11:21:46;;;;;;;26.50;11.95;;;11.90;99.90;;;;;;5061915;28;20048;-70
2021/11/17 11:24:23;;;;;;;24.23;12.50;;;12.00;99.90;;;;;;5095015;28;20067;-70
2021/11/17 11:26:58;;;;;;;26.60;11.35;;;12.30;99.90;;;;;;5091415;28;20091;-70
2021/11/17 11:29:41;;;;;;;26.25;12.02;;;12.50;99.90;;;;;;5039989;28;20055;-70
2021/11/17 11:32:30;;;;;;;19.13;9.48;;;12.70;99.90;;;;;;5094888;27;20036;-70
2021/11/17 11:34:58;;;;;;;25.25;9.52;;;12.80;99.90;;;;;;5063965;28;20044;-70
2021/11/17 11:37:24;;;;;;;17.95;8.88;;;12.90;99.90;;;;;;5062192;28;20056;-70
2021/11/17 11:40:02;;;;;;;28.80;9.40;;;13.10;99.90;;;;;;5056644;28;20474;-70
2021/11/17 11:42:39;;;;;;;17.27;7.80;;;13.00;99.90;;;;;;5091535;27;20033;-70
2021/11/17 11:45:08;;;;;;;24.35;7.40;;;13.00;99.90;;;;;;5059985;28;20123;-70
2021/11/17 11:47:44;;;;;;;29.20;8.55;;;13.00;99.90;;;;;;5057598;28;20037;-70
2021/11/17 11:50:32;;;;;;;24.17;7.30;;;12.90;99.90;;;;;;5052706;28;20040;-70
2021/11/17 11:53:16;;;;;;;24.05;6.93;;;12.90;99.90;;;;;;5057124;28;20094;-70
2021/11/17 11:55:51;;;;;;;20.98;5.95;;;12.80;99.90;;;;;;5058647;28;20597;-70
2021/11/17 12:01:33;;;;;;;18.80;4.40;;;12.80;99.90;;;;;;5062112;28;20040;-70
2021/11/17 12:04:09;;;;;;;15.93;3.97;;;12.70;99.90;;;;;;5033181;28;20091;-70
2021/11/17 12:06:56;;;;;;;18.33;4.28;;;12.60;99.90;;;;;;5062150;28;20041;-70
2021/11/17 12:09:28;;;;;;;25.63;4.45;;;12.60;99.90;;;;;;5057209;28;20182;-70
2021/11/17 12:11:58;;;;;;;19.13;4.13;;;12.70;99.90;;;;;;5091041;28;20063;-70
2021/11/17 12:14:52;;;;;;;18.33;3.67;;;12.60;99.90;;;;;;5093494;28;20040;-70
2021/11/17 12:17:26;;;;;;;16.55;3.30;;;12.50;99.90;;;;;;5056478;28;20695;-70
2021/11/17 12:20:33;;;;;;;21.80;3.97;;;12.50;99.90;;;;;;5056385;28;20044;-69
2021/11/17 12:23:10;;;;;;;16.17;3.25;;;12.40;99.90;;;;;;5058969;28;20052;-70
2021/11/17 12:25:37;;;;;;;18.88;3.05;;;12.40;99.90;;;;;;5059448;28;20090;-69
2021/11/17 12:28:11;;;;;;;14.63;3.17;;;12.40;99.90;;;;;;5056222;28;20115;-69
2021/11/17 12:30:48;;;;;;;15.75;3.38;;;12.40;99.90;;;;;;5056305;28;20032;-69
2021/11/17 12:33:22;;;;;;;20.92;2.92;;;12.30;99.90;;;;;;5059424;28;20093;-69
2021/11/17 12:36:00;;;;;;;21.52;4.15;;;12.30;99.90;;;;;;5058933;28;20052;-69
2021/11/17 12:38:27;;;;;;;23.02;3.38;;;12.30;99.90;;;;;;5054962;28;20125;-70
2021/11/17 12:41:14;;;;;;;15.35;2.40;;;12.40;99.90;;;;;;5060415;28;20028;-69
2021/11/17 12:43:43;;;;;;;19.27;3.70;;;12.40;99.90;;;;;;5058273;28;20045;-70
2021/11/17 12:46:25;;;;;;;17.40;2.80;;;12.30;99.90;;;;;;5061687;28;20044;-70
2021/11/17 12:49:05;;;;;;;16.77;2.72;;;12.30;99.90;;;;;;5054217;28;20064;-69
2021/11/17 12:52:08;;;;;;;14.70;3.50;;;12.20;99.90;;;;;;5060234;28;20621;-69
2021/11/17 12:54:47;;;;;;;13.63;2.10;;;12.20;99.90;;;;;;5055593;28;20084;-69
2021/11/17 12:57:21;;;;;;;15.65;3.28;;;12.10;99.90;;;;;;5061472;28;20041;-68
2021/11/17 13:00:03;;;;;;;17.27;3.20;;;12.10;99.90;;;;;;5055404;28;20056;-69
2021/11/17 13:02:35;;;;;;;12.52;2.15;;;12.10;99.90;;;;;;5059475;28;20090;-69
2021/11/17 13:05:20;;;;;;;14.95;2.33;;;12.10;99.90;;;;;;5057634;28;20489;-68
2021/11/17 13:07:49;;;;;;;20.90;3.85;;;11.90;99.90;;;;;;5058120;28;20150;-69
2021/11/17 13:10:41;;;;;;;16.50;4.13;;;11.90;99.90;;;;;;5056474;28;20123;-69
2021/11/17 13:13:12;;;;;;;11.68;2.13;;;11.80;99.90;;;;;;5059530;28;20380;-68
2021/11/17 13:15:50;;;;;;;20.25;3.70;;;11.80;99.90;;;;;;5073284;28;20101;-68
2021/11/17 13:18:45;;;;;;;13.02;2.10;;;11.70;99.90;;;;;;5055864;28;20047;-68
2021/11/17 13:21:22;;;;;;;11.38;2.10;;;11.70;99.90;;;;;;5056326;28;20056;-68
2021/11/17 13:23:57;;;;;;;13.38;3.38;;;11.60;99.90;;;;;;5060075;28;20048;-68
2021/11/17 13:26:42;;;;;;;10.93;1.93;;;11.50;99.90;;;;;;5056870;28;20087;-68
2021/11/17 13:29:22;;;;;;;7.90;1.38;;;11.40;99.90;;;;;;5056170;28;20287;-68
2021/11/17 13:31:54;;;;;;;11.98;1.92;;;11.40;99.90;;;;;;5057742;28;20127;-68
2021/11/17 13:34:35;;;;;;;11.35;1.40;;;11.30;99.90;;;;;;5057518;28;20037;-68
2021/11/17 13:37:23;;;;;;;10.40;2.22;;;11.30;99.90;;;;;;5062221;28;20132;-68
2021/11/17 13:39:59;;;;;;;11.93;2.05;;;11.30;99.90;;;;;;5056825;28;20130;-68
2021/11/17 13:42:27;;;;;;;13.93;2.35;;;11.20;99.90;;;;;;5060180;28;20123;-68
2021/11/17 13:44:57;;;;;;;12.25;2.10;;;11.10;99.90;;;;;;5058174;28;20048;-68
2021/11/17 13:47:24;;;;;;;12.20;1.65;;;11.20;99.90;;;;;;5057622;28;20063;-68
2021/11/17 13:49:54;;;;;;;13.35;2.17;;;11.10;99.90;;;;;;5054652;28;21509;-68
2021/11/17 13:52:24;;;;;;;12.65;2.78;;;11.10;99.90;;;;;;5055682;28;20044;-68
2021/11/17 13:54:50;;;;;;;13.35;2.20;;;11.10;99.90;;;;;;5057033;28;20086;-68
2021/11/17 13:57:16;;;;;;;17.40;2.38;;;11.00;99.90;;;;;;5057185;28;20123;-68
2021/11/17 13:59:43;;;;;;;13.32;2.38;;;11.00;99.90;;;;;;5055131;28;20176;-68
2021/11/17 14:02:10;;;;;;;14.55;2.20;;;11.00;99.90;;;;;;5058790;28;20045;-68
2021/11/17 14:04:36;;;;;;;12.30;1.63;;;10.90;99.90;;;;;;5057853;28;20064;-68
2021/11/17 14:07:02;;;;;;;23.00;2.58;;;10.90;99.90;;;;;;5060004;28;20497;-68
2021/11/17 14:09:28;;;;;;;13.57;3.13;;;10.90;99.90;;;;;;5055136;28;20131;-68
2021/11/17 14:11:56;;;;;;;15.50;1.98;;;10.90;99.90;;;;;;5059592;28;20043;-68
2021/11/17 14:14:21;;;;;;;10.80;2.28;;;10.80;99.90;;;;;;5057633;28;20052;-68
2021/11/17 14:16:48;;;;;;;17.83;3.15;;;10.80;99.90;;;;;;5056951;28;20045;-68
2021/11/17 14:19:14;;;;;;;13.43;2.05;;;10.80;99.90;;;;;;5056015;28;20139;-68
2021/11/17 14:21:43;;;;;;;17.98;2.85;;;10.70;99.90;;;;;;5057507;28;20131;-68
2021/11/17 14:24:12;;;;;;;17.08;2.20;;;10.70;99.90;;;;;;5058382;28;20077;-68
2021/11/17 14:26:40;;;;;;;10.60;2.00;;;10.70;99.90;;;;;;5056544;28;20028;-68
2021/11/17 14:29:38;;;;;;;12.73;1.83;;;10.60;99.90;;;;;;5056288;28;20579;-68
2021/11/17 14:32:11;;;;;;;13.80;2.63;;;10.70;99.90;;;;;;5059232;28;20487;-68
2021/11/17 14:34:37;;;;;;;15.35;2.88;;;10.70;99.90;;;;;;5057255;28;20040;-67
2021/11/17 14:37:05;;;;;;;11.75;1.52;;;10.60;99.90;;;;;;5059103;28;20151;-68
2021/11/17 14:39:36;;;;;;;11.63;1.67;;;10.60;99.90;;;;;;5056021;28;20048;-68
2021/11/17 14:42:03;;;;;;;18.67;2.10;;;10.60;99.90;;;;;;5057229;28;20044;-68
2021/11/17 14:44:30;;;;;;;11.43;1.92;;;10.40;99.90;;;;;;5056797;28;20052;-68
2021/11/17 14:46:55;;;;;;;19.95;2.45;;;10.30;99.90;;;;;;5058046;28;20045;-68
2021/11/17 14:49:21;;;;;;;13.00;1.77;;;10.20;99.90;;;;;;5055143;28;20040;-68
2021/11/17 14:51:48;;;;;;;17.10;1.73;;;10.10;99.90;;;;;;5056876;28;20055;-68
2021/11/17 14:54:13;;;;;;;13.07;1.50;;;10.10;99.90;;;;;;5058014;28;20044;-68
2021/11/17 14:56:40;;;;;;;9.07;1.20;;;10.00;99.90;;;;;;5055814;28;20043;-68
2021/11/17 14:59:07;;;;;;;10.82;1.50;;;9.90;99.90;;;;;;5086462;28;20112;-68
2021/11/17 15:01:35;;;;;;;9.88;1.75;;;9.90;99.90;;;;;;5056908;28;20090;-68
2021/11/17 15:04:16;;;;;;;9.82;1.98;;;9.80;99.90;;;;;;5059060;28;20123;-68
2021/11/17 15:06:43;;;;;;;12.52;1.40;;;9.70;99.90;;;;;;5058077;28;20044;-68
2021/11/17 15:09:11;;;;;;;5.75;0.98;;;9.70;99.90;;;;;;5055691;28;20513;-68
2021/11/17 15:11:56;;;;;;;14.70;1.20;;;9.70;99.90;;;;;;5060016;28;20029;-68
2021/11/17 15:14:24;;;;;;;7.73;1.33;;;9.60;99.90;;;;;;5058691;28;20083;-68
2021/11/17 15:16:51;;;;;;;20.65;2.08;;;9.50;99.90;;;;;;5055835;28;20040;-68
2021/11/17 15:19:17;;;;;;;10.40;1.00;;;9.50;99.90;;;;;;5054807;28;20047;-68
2021/11/17 15:21:43;;;;;;;9.40;1.50;;;9.40;99.90;;;;;;5059889;28;20039;-68
2021/11/17 15:24:09;;;;;;;9.90;1.65;;;9.40;99.90;;;;;;5058651;28;20522;-68
2021/11/17 15:27:26;;;;;;;17.77;1.85;;;9.30;99.90;;;;;;5057204;28;20037;-68
2021/11/17 15:29:53;;;;;;;13.75;1.38;;;9.20;99.90;;;;;;5033601;28;20088;-68
2021/11/17 15:32:20;;;;;;;8.75;2.30;;;9.10;99.90;;;;;;5054099;28;20048;-68
2021/11/17 15:34:46;;;;;;;12.77;1.50;;;9.10;99.90;;;;;;5058376;28;20425;-68
2021/11/17 15:37:13;;;;;;;6.22;1.20;;;9.00;99.90;;;;;;5057942;28;20635;-68
2021/11/17 15:39:39;;;;;;;11.90;1.38;;;8.90;99.90;;;;;;5052793;28;20495;-68
2021/11/17 15:42:06;;;;;;;15.60;1.33;;;8.90;99.90;;;;;;5057959;28;20055;-68
2021/11/17 15:44:32;;;;;;;18.90;2.78;;;8.80;99.90;;;;;;5088621;28;22031;-68
2021/11/17 15:47:08;;;;;;;12.05;1.70;;;8.80;99.90;;;;;;5056208;28;20044;-68
2021/11/17 15:49:35;;;;;;;12.82;1.30;;;8.70;99.90;;;;;;5052938;28;20052;-68